Time,TemperatureF,DewpointF,PressureIn,WindDirection,WindDirectionDegrees,WindSpeedMPH,WindSpeedGustMPH,Humidity,HourlyPrecipIn,Conditions,Clouds,dailyrainin,SoftwareType,DateUTC
2013-07-02 00:02:00,79.2,62.6,29.72,West,270,0.0,2.0,57,0.00,,,0.00,meteohub,2013-07-02 07:02:00,
2013-07-02 00:07:00,79.2,63.1,29.73,West,270,0.0,2.0,58,0.00,,,0.00,meteohub,2013-07-02 07:07:00,
2013-07-02 00:12:00,79.0,63.0,29.73,West,270,1.0,2.0,58,0.00,,,0.00,meteohub,2013-07-02 07:12:00,
2013-07-02 00:17:00,79.0,63.0,29.73,West,270,0.0,1.0,58,0.00,,,0.00,meteohub,2013-07-02 07:17:00,
2013-07-02 00:22:00,79.0,63.0,29.73,West,270,0.0,1.0,58,0.00,,,0.00,meteohub,2013-07-02 07:22:00,
2013-07-02 00:27:00,79.0,63.0,29.72,West,270,0.0,1.0,58,0.00,,,0.00,meteohub,2013-07-02 07:27:00,
2013-07-02 00:32:00,79.0,63.0,29.73,West,270,0.0,1.0,58,0.00,,,0.00,meteohub,2013-07-02 07:32:00,
2013-07-02 00:37:00,79.0,63.0,29.73,West,270,0.0,1.0,58,0.00,,,0.00,meteohub,2013-07-02 07:37:00,
2013-07-02 00:42:00,79.0,63.0,29.73,NE,45,0.0,1.0,58,0.00,,,0.00,meteohub,2013-07-02 07:42:00,
2013-07-02 00:47:00,79.2,63.1,29.73,SW,225,2.0,2.0,58,0.00,,,0.00,meteohub,2013-07-02 07:47:00,
2013-07-02 00:52:00,79.3,63.7,29.73,South,180,1.0,2.0,59,0.00,,,0.00,meteohub,2013-07-02 07:52:00,
2013-07-02 00:57:00,79.3,64.2,29.73,SW,225,2.0,2.0,60,0.00,,,0.00,meteohub,2013-07-02 07:57:00,
2013-07-02 01:02:00,79.3,64.2,29.73,SW,225,1.0,2.0,60,0.00,,,0.00,meteohub,2013-07-02 08:02:00,
2013-07-02 01:07:00,79.3,64.2,29.73,SW,225,1.0,2.0,60,0.00,,,0.00,meteohub,2013-07-02 08:07:00,
2013-07-02 01:12:00,78.8,63.7,29.73,SW,225,0.0,2.0,60,0.00,,,0.00,meteohub,2013-07-02 08:12:00,
2013-07-02 01:17:00,78.8,63.7,29.75,SW,225,2.0,2.0,60,0.00,,,0.00,meteohub,2013-07-02 08:17:00,
2013-07-02 01:22:00,78.6,63.1,29.75,SW,225,1.0,2.0,59,0.00,,,0.00,meteohub,2013-07-02 08:22:00,
2013-07-02 01:27:00,78.6,62.6,29.75,SW,225,0.0,2.0,58,0.00,,,0.00,meteohub,2013-07-02 08:27:00,
2013-07-02 01:32:00,78.6,62.6,29.74,North,0,1.0,2.0,58,0.00,,,0.00,meteohub,2013-07-02 08:32:00,
2013-07-02 01:37:00,78.4,62.4,29.74,SW,225,0.0,2.0,58,0.00,,,0.00,meteohub,2013-07-02 08:37:00,
2013-07-02 01:42:00,78.1,62.1,29.73,SW,225,0.0,2.0,58,0.00,,,0.00,meteohub,2013-07-02 08:42:00,
2013-07-02 01:47:00,77.9,61.9,29.73,West,270,2.0,2.0,58,0.00,,,0.00,meteohub,2013-07-02 08:47:00,
2013-07-02 01:52:00,77.7,62.2,29.73,SW,225,1.0,2.0,59,0.00,,,0.00,meteohub,2013-07-02 08:52:00,
2013-07-02 01:57:00,77.5,62.6,29.73,SW,225,1.0,2.0,60,0.00,,,0.00,meteohub,2013-07-02 08:57:00,
2013-07-02 02:02:00,77.4,62.4,29.73,South,180,2.0,2.0,60,0.00,,,0.00,meteohub,2013-07-02 09:02:00,
2013-07-02 02:07:00,77.0,62.6,29.73,South,180,1.0,2.0,61,0.00,,,0.00,meteohub,2013-07-02 09:07:00,
2013-07-02 02:12:00,76.8,62.4,29.73,South,180,0.0,2.0,61,0.00,,,0.00,meteohub,2013-07-02 09:12:00,
2013-07-02 02:17:00,76.6,62.6,29.72,SW,225,2.0,2.0,62,0.00,,,0.00,meteohub,2013-07-02 09:17:00,
2013-07-02 02:22:00,76.3,62.2,29.72,South,180,1.0,2.0,62,0.00,,,0.00,meteohub,2013-07-02 09:22:00,
2013-07-02 02:27:00,76.1,62.6,29.72,SW,225,1.0,2.0,63,0.00,,,0.00,meteohub,2013-07-02 09:27:00,
2013-07-02 02:32:00,75.9,62.4,29.72,SE,135,1.0,2.0,63,0.00,,,0.00,meteohub,2013-07-02 09:32:00,
2013-07-02 02:37:00,75.6,62.6,29.72,NE,45,0.0,2.0,64,0.00,,,0.00,meteohub,2013-07-02 09:37:00,
2013-07-02 02:42:00,75.4,62.4,29.72,NE,45,2.0,2.0,64,0.00,,,0.00,meteohub,2013-07-02 09:42:00,
2013-07-02 02:47:00,75.2,62.6,29.71,NE,45,2.0,2.0,65,0.00,,,0.00,meteohub,2013-07-02 09:47:00,
2013-07-02 02:52:00,75.2,62.2,29.71,NE,45,1.0,2.0,64,0.00,,,0.00,meteohub,2013-07-02 09:52:00,
2013-07-02 02:57:00,75.4,62.4,29.71,NE,45,1.0,2.0,64,0.00,,,0.00,meteohub,2013-07-02 09:57:00,
2013-07-02 03:02:00,75.4,62.4,29.71,NE,45,2.0,2.0,64,0.00,,,0.00,meteohub,2013-07-02 10:02:00,
2013-07-02 03:07:00,75.4,62.4,29.70,NE,45,2.0,2.0,64,0.00,,,0.00,meteohub,2013-07-02 10:07:00,
2013-07-02 03:12:00,76.5,64.2,29.71,NE,45,1.0,2.0,66,0.00,,,0.00,meteohub,2013-07-02 10:12:00,
2013-07-02 03:17:00,77.0,64.8,29.70,NE,45,2.0,4.0,66,0.00,,,0.00,meteohub,2013-07-02 10:17:00,
2013-07-02 03:22:00,77.4,65.5,29.70,NE,45,2.0,4.0,67,0.00,,,0.00,meteohub,2013-07-02 10:22:00,
2013-07-02 03:27:00,77.9,65.7,29.71,North,0,1.0,2.0,66,0.00,,,0.00,meteohub,2013-07-02 10:27:00,
2013-07-02 03:32:00,78.1,65.8,29.71,North,0,1.0,2.0,66,0.00,,,0.00,meteohub,2013-07-02 10:32:00,
2013-07-02 03:37:00,78.3,65.5,29.71,NW,315,0.0,2.0,65,0.00,,,0.00,meteohub,2013-07-02 10:37:00,
2013-07-02 03:42:00,78.3,65.5,29.72,NW,315,0.0,2.0,65,0.00,,,0.00,meteohub,2013-07-02 10:42:00,
2013-07-02 03:47:00,78.3,66.0,29.72,SW,225,2.0,2.0,66,0.00,,,0.00,meteohub,2013-07-02 10:47:00,
2013-07-02 03:52:00,77.9,66.0,29.73,South,180,2.0,2.0,67,0.00,,,0.00,meteohub,2013-07-02 10:52:00,
2013-07-02 03:57:00,77.4,65.1,29.72,SW,225,2.0,2.0,66,0.00,,,0.00,meteohub,2013-07-02 10:57:00,
2013-07-02 04:02:00,77.0,64.4,29.72,SW,225,2.0,2.0,65,0.00,,,0.00,meteohub,2013-07-02 11:02:00,
2013-07-02 04:07:00,75.9,63.7,29.72,SW,225,1.0,2.0,66,0.00,,,0.00,meteohub,2013-07-02 11:07:00,
2013-07-02 04:12:00,75.2,63.5,29.72,SW,225,2.0,2.0,67,0.00,,,0.00,meteohub,2013-07-02 11:12:00,
2013-07-02 04:17:00,74.5,62.8,29.72,SW,225,0.0,2.0,67,0.00,,,0.00,meteohub,2013-07-02 11:17:00,
2013-07-02 04:22:00,73.8,62.1,29.72,SW,225,2.0,2.0,67,0.00,,,0.00,meteohub,2013-07-02 11:22:00,
2013-07-02 04:27:00,73.2,62.1,29.73,South,180,2.0,2.0,68,0.00,,,0.00,meteohub,2013-07-02 11:27:00,
2013-07-02 04:32:00,72.7,61.5,29.73,South,180,3.0,3.0,68,0.00,,,0.00,meteohub,2013-07-02 11:32:00,
2013-07-02 04:37:00,72.0,61.2,29.73,SW,225,2.0,3.0,69,0.00,,,0.00,meteohub,2013-07-02 11:37:00,
2013-07-02 04:42:00,71.6,60.8,29.73,South,180,0.0,3.0,69,0.00,,,0.00,meteohub,2013-07-02 11:42:00,
2013-07-02 04:47:00,71.4,61.2,29.72,SW,225,2.0,3.0,70,0.00,,,0.00,meteohub,2013-07-02 11:47:00,
2013-07-02 04:52:00,71.1,60.8,29.73,SW,225,1.0,2.0,70,0.00,,,0.00,meteohub,2013-07-02 11:52:00,
2013-07-02 04:57:00,70.9,60.6,29.73,SW,225,1.0,2.0,70,0.00,,,0.00,meteohub,2013-07-02 11:57:00,
2013-07-02 05:02:00,70.7,60.4,29.72,West,270,1.0,2.0,70,0.00,,,0.00,meteohub,2013-07-02 12:02:00,
2013-07-02 05:07:00,70.5,60.6,29.72,SW,225,0.0,1.0,71,0.00,,,0.00,meteohub,2013-07-02 12:07:00,
2013-07-02 05:12:00,70.3,60.4,29.72,East,90,1.0,2.0,71,0.00,,,0.00,meteohub,2013-07-02 12:12:00,
2013-07-02 05:17:00,70.2,60.3,29.73,SW,225,1.0,2.0,71,0.00,,,0.00,meteohub,2013-07-02 12:17:00,
2013-07-02 05:22:00,70.2,60.6,29.72,SW,225,2.0,2.0,72,0.00,,,0.00,meteohub,2013-07-02 12:22:00,
2013-07-02 05:27:00,70.2,60.6,29.72,SW,225,2.0,2.0,72,0.00,,,0.00,meteohub,2013-07-02 12:27:00,
2013-07-02 05:32:00,70.2,60.6,29.72,SW,225,1.0,2.0,72,0.00,,,0.00,meteohub,2013-07-02 12:32:00,
2013-07-02 05:37:00,70.2,60.6,29.73,West,270,1.0,2.0,72,0.00,,,0.00,meteohub,2013-07-02 12:37:00,
2013-07-02 05:42:00,70.2,60.6,29.73,SW,225,1.0,2.0,72,0.00,,,0.00,meteohub,2013-07-02 12:42:00,
2013-07-02 05:47:00,70.2,60.6,29.73,SW,225,1.0,2.0,72,0.00,,,0.00,meteohub,2013-07-02 12:47:00,
2013-07-02 05:53:00,70.2,60.6,29.73,South,180,0.0,2.0,72,0.00,,,0.00,meteohub,2013-07-02 12:53:00,
2013-07-02 05:58:00,70.2,60.6,29.73,SW,225,2.0,2.0,72,0.00,,,0.00,meteohub,2013-07-02 12:58:00,
2013-07-02 06:03:00,70.2,60.6,29.73,SW,225,1.0,2.0,72,0.00,,,0.00,meteohub,2013-07-02 13:03:00,
2013-07-02 06:08:00,70.0,60.6,29.73,SW,225,1.0,2.0,72,0.00,,,0.00,meteohub,2013-07-02 13:08:00,
2013-07-02 06:10:00,70.2,60.6,29.73,SW,225,1.0,2.0,72,0.00,,,0.00,meteohub,2013-07-02 13:10:00,
2013-07-02 06:15:00,70.2,61.2,29.73,SW,225,2.0,2.0,73,0.00,,,0.00,meteohub,2013-07-02 13:15:00,
2013-07-02 06:20:00,70.0,61.0,29.73,SW,225,2.0,2.0,73,0.00,,,0.00,meteohub,2013-07-02 13:20:00,
2013-07-02 06:25:00,70.0,61.0,29.73,SW,225,2.0,2.0,73,0.00,,,0.00,meteohub,2013-07-02 13:25:00,
2013-07-02 06:30:00,70.0,61.0,29.73,SW,225,1.0,2.0,73,0.00,,,0.00,meteohub,2013-07-02 13:30:00,
2013-07-02 06:35:00,70.0,61.0,29.74,West,270,2.0,2.0,73,0.00,,,0.00,meteohub,2013-07-02 13:35:00,
2013-07-02 06:40:00,70.0,61.0,29.74,SW,225,1.0,2.0,73,0.00,,,0.00,meteohub,2013-07-02 13:40:00,
2013-07-02 06:45:00,70.2,60.6,29.74,SW,225,2.0,2.0,72,0.00,,,0.00,meteohub,2013-07-02 13:45:00,
2013-07-02 06:50:00,70.3,60.8,29.74,SW,225,2.0,2.0,72,0.00,,,0.00,meteohub,2013-07-02 13:50:00,
2013-07-02 06:56:00,70.7,60.8,29.74,SW,225,1.0,2.0,71,0.00,,,0.00,meteohub,2013-07-02 13:56:00,
2013-07-02 07:01:00,70.9,61.0,29.74,SW,225,1.0,2.0,71,0.00,,,0.00,meteohub,2013-07-02 14:01:00,
2013-07-02 07:06:00,71.2,61.3,29.74,SW,225,1.0,2.0,71,0.00,,,0.00,meteohub,2013-07-02 14:06:00,
2013-07-02 07:11:00,71.4,61.5,29.74,West,270,2.0,2.0,71,0.00,,,0.00,meteohub,2013-07-02 14:11:00,
2013-07-02 07:16:00,71.8,61.9,29.74,SW,225,1.0,2.0,71,0.00,,,0.00,meteohub,2013-07-02 14:16:00,
2013-07-02 07:21:00,72.3,62.1,29.74,South,180,1.0,2.0,70,0.00,,,0.00,meteohub,2013-07-02 14:21:00,
2013-07-02 07:26:00,72.7,62.2,29.74,SW,225,2.0,2.0,70,0.00,,,0.00,meteohub,2013-07-02 14:26:00,
2013-07-02 07:31:00,73.0,62.6,29.74,SW,225,2.0,2.0,70,0.00,,,0.00,meteohub,2013-07-02 14:31:00,
2013-07-02 07:36:00,73.4,63.0,29.74,West,270,1.0,2.0,70,0.00,,,0.00,meteohub,2013-07-02 14:36:00,
2013-07-02 07:42:00,74.1,63.7,29.74,West,270,2.0,2.0,70,0.00,,,0.00,meteohub,2013-07-02 14:42:00,
2013-07-02 07:47:00,74.7,63.3,29.74,SW,225,2.0,2.0,68,0.00,,,0.00,meteohub,2013-07-02 14:47:00,
2013-07-02 07:52:00,75.2,63.9,29.75,SW,225,2.0,2.0,68,0.00,,,0.00,meteohub,2013-07-02 14:52:00,
2013-07-02 07:57:00,75.7,64.0,29.75,West,270,2.0,2.0,67,0.00,,,0.00,meteohub,2013-07-02 14:57:00,
2013-07-02 08:02:00,76.3,64.0,29.75,SW,225,2.0,2.0,66,0.00,,,0.00,meteohub,2013-07-02 15:02:00,
2013-07-02 08:07:00,77.0,64.8,29.75,SW,225,2.0,2.0,66,0.00,,,0.00,meteohub,2013-07-02 15:07:00,
2013-07-02 08:12:00,77.5,64.8,29.75,South,180,1.0,2.0,65,0.00,,,0.00,meteohub,2013-07-02 15:12:00,
2013-07-02 08:17:00,78.1,64.9,29.75,SW,225,2.0,2.0,64,0.00,,,0.00,meteohub,2013-07-02 15:17:00,
2013-07-02 08:22:00,78.8,65.1,29.75,North,0,2.0,2.0,63,0.00,,,0.00,meteohub,2013-07-02 15:22:00,
2013-07-02 08:27:00,79.3,65.1,29.75,North,0,2.0,2.0,62,0.00,,,0.00,meteohub,2013-07-02 15:27:00,
2013-07-02 08:32:00,79.9,65.3,29.76,NE,45,1.0,2.0,61,0.00,,,0.00,meteohub,2013-07-02 15:32:00,
2013-07-02 08:37:00,80.2,65.5,29.76,South,180,2.0,2.0,61,0.00,,,0.00,meteohub,2013-07-02 15:37:00,
2013-07-02 08:42:00,81.0,65.8,29.75,SW,225,2.0,3.0,60,0.00,,,0.00,meteohub,2013-07-02 15:42:00,
2013-07-02 08:47:00,81.7,66.0,29.75,East,90,1.0,3.0,59,0.00,,,0.00,meteohub,2013-07-02 15:47:00,
2013-07-02 08:52:00,82.4,66.2,29.76,SW,225,2.0,3.0,58,0.00,,,0.00,meteohub,2013-07-02 15:52:00,
2013-07-02 08:57:00,83.5,66.6,29.76,NE,45,1.0,2.0,57,0.00,,,0.00,meteohub,2013-07-02 15:57:00,
2013-07-02 09:02:00,84.4,66.9,29.76,SW,225,1.0,2.0,56,0.00,,,0.00,meteohub,2013-07-02 16:02:00,
2013-07-02 09:07:00,85.1,67.1,29.76,SW,225,2.0,2.0,55,0.00,,,0.00,meteohub,2013-07-02 16:07:00,
2013-07-02 09:12:00,86.2,67.1,29.76,South,180,2.0,2.0,53,0.00,,,0.00,meteohub,2013-07-02 16:12:00,
2013-07-02 09:17:00,86.5,66.7,29.76,West,270,2.0,2.0,52,0.00,,,0.00,meteohub,2013-07-02 16:17:00,
2013-07-02 09:22:00,87.1,67.3,29.76,West,270,2.0,2.0,52,0.00,,,0.00,meteohub,2013-07-02 16:22:00,
2013-07-02 09:27:00,87.8,67.5,29.76,SW,225,2.0,2.0,51,0.00,,,0.00,meteohub,2013-07-02 16:27:00,
2013-07-02 09:32:00,88.5,67.5,29.76,SW,225,2.0,2.0,50,0.00,,,0.00,meteohub,2013-07-02 16:32:00,
2013-07-02 09:37:00,89.1,68.0,29.76,South,180,2.0,2.0,50,0.00,,,0.00,meteohub,2013-07-02 16:37:00,
2013-07-02 09:42:00,89.6,67.8,29.76,NW,315,2.0,2.0,49,0.00,,,0.00,meteohub,2013-07-02 16:42:00,
2013-07-02 09:47:00,90.0,67.6,29.76,SW,225,2.0,2.0,48,0.00,,,0.00,meteohub,2013-07-02 16:47:00,
2013-07-02 09:52:00,90.5,68.7,29.76,South,180,2.0,2.0,49,0.00,,,0.00,meteohub,2013-07-02 16:52:00,
2013-07-02 09:58:00,91.4,68.4,29.77,East,90,2.0,2.0,47,0.00,,,0.00,meteohub,2013-07-02 16:58:00,
2013-07-02 10:03:00,91.8,68.0,29.77,West,270,2.0,2.0,46,0.00,,,0.00,meteohub,2013-07-02 17:03:00,
2013-07-02 10:08:00,92.5,66.7,29.77,South,180,2.0,2.0,43,0.00,,,0.00,meteohub,2013-07-02 17:08:00,
2013-07-02 10:13:00,93.0,67.8,29.77,East,90,2.0,2.0,44,0.00,,,0.00,meteohub,2013-07-02 17:13:00,
2013-07-02 10:18:00,93.4,68.2,29.77,West,270,2.0,2.0,44,0.00,,,0.00,meteohub,2013-07-02 17:18:00,
2013-07-02 10:23:00,93.9,68.0,29.77,NE,45,2.0,3.0,43,0.00,,,0.00,meteohub,2013-07-02 17:23:00,
2013-07-02 10:28:00,94.5,68.5,29.77,South,180,1.0,3.0,43,0.00,,,0.00,meteohub,2013-07-02 17:28:00,
2013-07-02 10:33:00,95.2,69.1,29.77,SW,225,2.0,3.0,43,0.00,,,0.00,meteohub,2013-07-02 17:33:00,
2013-07-02 10:38:00,95.7,68.9,29.78,South,180,2.0,2.0,42,0.00,,,0.00,meteohub,2013-07-02 17:38:00,
2013-07-02 10:43:00,95.9,68.4,29.78,SE,135,2.0,2.0,41,0.00,,,0.00,meteohub,2013-07-02 17:43:00,
2013-07-02 10:48:00,96.1,67.8,29.78,East,90,2.0,2.0,40,0.00,,,0.00,meteohub,2013-07-02 17:48:00,
2013-07-02 10:53:00,95.9,66.9,29.78,East,90,5.0,5.0,39,0.00,,,0.00,meteohub,2013-07-02 17:53:00,
2013-07-02 10:58:00,95.5,67.3,29.78,East,90,3.0,4.0,40,0.00,,,0.00,meteohub,2013-07-02 17:58:00,
2013-07-02 11:04:00,95.7,67.5,29.78,NW,315,2.0,5.0,40,0.00,,,0.00,meteohub,2013-07-02 18:04:00,
2013-07-02 11:09:00,96.1,68.5,29.78,West,270,2.0,5.0,41,0.00,,,0.00,meteohub,2013-07-02 18:09:00,
2013-07-02 11:14:00,96.4,67.5,29.78,NW,315,2.0,3.0,39,0.00,,,0.00,meteohub,2013-07-02 18:14:00,
2013-07-02 11:19:00,97.2,68.0,29.77,West,270,2.0,2.0,39,0.00,,,0.00,meteohub,2013-07-02 18:19:00,
2013-07-02 11:24:00,97.3,68.2,29.77,South,180,2.0,2.0,39,0.00,,,0.00,meteohub,2013-07-02 18:24:00,
2013-07-02 11:29:00,97.7,68.5,29.77,West,270,2.0,3.0,39,0.00,,,0.00,meteohub,2013-07-02 18:29:00,
2013-07-02 11:34:00,98.1,68.9,29.77,SW,225,2.0,3.0,39,0.00,,,0.00,meteohub,2013-07-02 18:34:00,
2013-07-02 11:40:00,98.4,67.6,29.77,South,180,2.0,2.0,37,0.00,,,0.00,meteohub,2013-07-02 18:40:00,
2013-07-02 11:45:00,99.0,68.9,29.77,SW,225,2.0,3.0,38,0.00,,,0.00,meteohub,2013-07-02 18:45:00,
2013-07-02 11:50:00,99.5,68.5,29.76,East,90,2.0,3.0,37,0.00,,,0.00,meteohub,2013-07-02 18:50:00,
2013-07-02 11:55:00,99.9,68.9,29.77,West,270,3.0,3.0,37,0.00,,,0.00,meteohub,2013-07-02 18:55:00,
2013-07-02 12:00:00,99.7,68.0,29.77,South,180,2.0,3.0,36,0.00,,,0.00,meteohub,2013-07-02 19:00:00,
2013-07-02 12:05:00,99.9,67.3,29.76,South,180,3.0,3.0,35,0.00,,,0.00,meteohub,2013-07-02 19:05:00,
2013-07-02 12:06:00,99.9,68.2,29.76,SW,225,2.0,3.0,36,0.00,,,0.00,meteohub,2013-07-02 19:06:00,
2013-07-02 12:11:00,100.4,68.5,29.77,South,180,2.0,3.0,36,0.00,,,0.00,meteohub,2013-07-02 19:11:00,
2013-07-02 12:16:00,100.8,68.2,29.77,SE,135,2.0,3.0,35,0.00,,,0.00,meteohub,2013-07-02 19:16:00,
2013-07-02 12:21:00,100.8,68.2,29.77,East,90,2.0,4.0,35,0.00,,,0.00,meteohub,2013-07-02 19:21:00,
2013-07-02 12:26:00,101.1,69.3,29.77,South,180,2.0,4.0,36,0.00,,,0.00,meteohub,2013-07-02 19:26:00,
2013-07-02 12:31:00,101.5,69.6,29.77,South,180,2.0,4.0,36,0.00,,,0.00,meteohub,2013-07-02 19:31:00,
2013-07-02 12:36:00,101.5,68.7,29.77,SW,225,2.0,3.0,35,0.00,,,0.00,meteohub,2013-07-02 19:36:00,
2013-07-02 12:42:00,101.8,69.1,29.77,South,180,2.0,3.0,35,0.00,,,0.00,meteohub,2013-07-02 19:42:00,
2013-07-02 12:47:00,102.0,69.3,29.77,SE,135,2.0,3.0,35,0.00,,,0.00,meteohub,2013-07-02 19:47:00,
2013-07-02 12:52:00,102.2,68.5,29.77,NW,315,2.0,3.0,34,0.00,,,0.00,meteohub,2013-07-02 19:52:00,
2013-07-02 12:57:00,102.4,68.7,29.77,West,270,2.0,3.0,34,0.00,,,0.00,meteohub,2013-07-02 19:57:00,
2013-07-02 13:02:00,102.4,68.7,29.77,SW,225,2.0,3.0,34,0.00,,,0.00,meteohub,2013-07-02 20:02:00,
2013-07-02 13:07:00,102.7,68.9,29.77,SW,225,2.0,3.0,34,0.00,,,0.00,meteohub,2013-07-02 20:07:00,
2013-07-02 13:12:00,102.9,69.1,29.77,SW,225,2.0,2.0,34,0.00,,,0.00,meteohub,2013-07-02 20:12:00,
2013-07-02 13:17:00,103.1,67.5,29.77,SE,135,2.0,2.0,32,0.00,,,0.00,meteohub,2013-07-02 20:17:00,
2013-07-02 13:22:00,103.1,67.5,29.77,NE,45,2.0,4.0,32,0.00,,,0.00,meteohub,2013-07-02 20:22:00,
2013-07-02 13:27:00,103.5,68.7,29.77,NE,45,2.0,4.0,33,0.00,,,0.00,meteohub,2013-07-02 20:27:00,
2013-07-02 13:32:00,103.8,69.1,29.76,South,180,2.0,4.0,33,0.00,,,0.00,meteohub,2013-07-02 20:32:00,
2013-07-02 13:37:00,104.0,69.3,29.76,SE,135,2.0,3.0,33,0.00,,,0.00,meteohub,2013-07-02 20:37:00,
2013-07-02 13:42:00,104.5,68.7,29.76,East,90,2.0,4.0,32,0.00,,,0.00,meteohub,2013-07-02 20:42:00,
2013-07-02 13:47:00,104.7,68.9,29.75,NW,315,2.0,4.0,32,0.00,,,0.00,meteohub,2013-07-02 20:47:00,
2013-07-02 13:53:00,104.5,68.7,29.76,SE,135,2.0,2.0,32,0.00,,,0.00,meteohub,2013-07-02 20:53:00,
2013-07-02 13:58:00,104.0,68.4,29.75,SW,225,2.0,2.0,32,0.00,,,0.00,meteohub,2013-07-02 20:58:00,
2013-07-02 14:03:00,103.1,68.4,29.75,West,270,2.0,3.0,33,0.00,,,0.00,meteohub,2013-07-02 21:03:00,
2013-07-02 14:08:00,103.1,69.3,29.75,SE,135,2.0,3.0,34,0.00,,,0.00,meteohub,2013-07-02 21:08:00,
2013-07-02 14:13:00,103.5,69.6,29.75,South,180,2.0,4.0,34,0.00,,,0.00,meteohub,2013-07-02 21:13:00,
2013-07-02 14:18:00,104.0,70.0,29.75,West,270,2.0,4.0,34,0.00,,,0.00,meteohub,2013-07-02 21:18:00,
2013-07-02 14:23:00,104.5,69.6,29.75,NW,315,2.0,4.0,33,0.00,,,0.00,meteohub,2013-07-02 21:23:00,
2013-07-02 14:28:00,105.1,69.3,29.75,NW,315,2.0,2.0,32,0.00,,,0.00,meteohub,2013-07-02 21:28:00,
2013-07-02 14:33:00,105.3,69.4,29.75,NW,315,2.0,4.0,32,0.00,,,0.00,meteohub,2013-07-02 21:33:00,
2013-07-02 14:38:00,105.6,69.6,29.74,SW,225,2.0,4.0,32,0.00,,,0.00,meteohub,2013-07-02 21:38:00,
2013-07-02 14:43:00,106.2,70.2,29.74,SW,225,2.0,4.0,32,0.00,,,0.00,meteohub,2013-07-02 21:43:00,
2013-07-02 14:48:00,106.3,68.4,29.74,SE,135,2.0,2.0,30,0.00,,,0.00,meteohub,2013-07-02 21:48:00,
2013-07-02 14:54:00,105.6,69.6,29.74,West,270,2.0,3.0,32,0.00,,,0.00,meteohub,2013-07-02 21:54:00,
2013-07-02 14:59:00,105.1,68.4,29.74,West,270,3.0,4.0,31,0.00,,,0.00,meteohub,2013-07-02 21:59:00,
2013-07-02 15:04:00,105.1,68.4,29.74,SW,225,2.0,4.0,31,0.00,,,0.00,meteohub,2013-07-02 22:04:00,
2013-07-02 15:09:00,104.7,67.1,29.74,SW,225,2.0,4.0,30,0.00,,,0.00,meteohub,2013-07-02 22:09:00,
2013-07-02 15:14:00,104.5,66.9,29.74,NW,315,2.0,3.0,30,0.00,,,0.00,meteohub,2013-07-02 22:14:00,
2013-07-02 15:19:00,104.4,65.8,29.74,West,270,5.0,5.0,29,0.00,,,0.00,meteohub,2013-07-02 22:19:00,
2013-07-02 15:24:00,103.8,66.2,29.74,North,0,4.0,5.0,30,0.00,,,0.00,meteohub,2013-07-02 22:24:00,
2013-07-02 15:29:00,103.6,65.1,29.73,East,90,4.0,5.0,29,0.00,,,0.00,meteohub,2013-07-02 22:29:00,
2013-07-02 15:34:00,103.3,64.8,29.74,SW,225,3.0,6.0,29,0.00,,,0.00,meteohub,2013-07-02 22:34:00,
2013-07-02 15:39:00,103.1,66.6,29.74,West,270,2.0,6.0,31,0.00,,,0.00,meteohub,2013-07-02 22:39:00,
2013-07-02 15:44:00,103.1,65.7,29.74,SE,135,4.0,6.0,30,0.00,,,0.00,meteohub,2013-07-02 22:44:00,
2013-07-02 15:49:00,102.9,64.6,29.73,NE,45,2.0,4.0,29,0.00,,,0.00,meteohub,2013-07-02 22:49:00,
2013-07-02 15:54:00,103.1,65.7,29.74,North,0,3.0,4.0,30,0.00,,,0.00,meteohub,2013-07-02 22:54:00,
2013-07-02 15:59:00,103.3,64.8,29.73,SW,225,6.0,6.0,29,0.00,,,0.00,meteohub,2013-07-02 22:59:00,
2013-07-02 16:05:00,102.9,64.6,29.74,East,90,3.0,4.0,29,0.00,,,0.00,meteohub,2013-07-02 23:05:00,
2013-07-02 16:10:00,102.6,64.2,29.73,SW,225,3.0,6.0,29,0.00,,,0.00,meteohub,2013-07-02 23:10:00,
2013-07-02 16:15:00,101.7,63.5,29.74,NE,45,2.0,6.0,29,0.00,,,0.00,meteohub,2013-07-02 23:15:00,
2013-07-02 16:20:00,100.6,62.6,29.74,West,270,3.0,3.0,29,0.00,,,0.00,meteohub,2013-07-02 23:20:00,
2013-07-02 16:25:00,99.3,62.4,29.73,North,0,3.0,4.0,30,0.00,,,0.00,meteohub,2013-07-02 23:25:00,
2013-07-02 16:30:00,98.6,62.8,29.73,SW,225,2.0,4.0,31,0.00,,,0.00,meteohub,2013-07-02 23:30:00,
2013-07-02 16:35:00,97.9,63.0,29.73,North,0,1.0,4.0,32,0.00,,,0.00,meteohub,2013-07-02 23:35:00,
2013-07-02 16:41:00,97.5,63.5,29.73,North,0,2.0,4.0,33,0.00,,,0.00,meteohub,2013-07-02 23:41:00,
2013-07-02 16:46:00,97.7,64.6,29.73,South,180,2.0,4.0,34,0.00,,,0.00,meteohub,2013-07-02 23:46:00,
2013-07-02 16:51:00,97.9,63.9,29.73,West,270,2.0,4.0,33,0.00,,,0.00,meteohub,2013-07-02 23:51:00,
2013-07-02 16:56:00,97.9,63.0,29.73,SW,225,3.0,3.0,32,0.00,,,0.00,meteohub,2013-07-02 23:56:00,
2013-07-02 17:01:00,97.7,62.8,29.73,West,270,2.0,6.0,32,0.00,,,0.00,meteohub,2013-07-03 00:01:00,
2013-07-02 17:06:00,97.2,63.3,29.73,SE,135,2.0,6.0,33,0.00,,,0.00,meteohub,2013-07-03 00:06:00,
2013-07-02 17:07:00,97.0,64.0,29.73,SW,225,2.0,6.0,34,0.00,,,0.00,meteohub,2013-07-03 00:07:00,
2013-07-02 17:12:00,96.4,62.6,29.73,SW,225,2.0,6.0,33,0.00,,,0.00,meteohub,2013-07-03 00:12:00,
2013-07-02 17:17:00,95.9,63.0,29.73,SW,225,2.0,4.0,34,0.00,,,0.00,meteohub,2013-07-03 00:17:00,
2013-07-02 17:22:00,95.7,62.8,29.72,South,180,2.0,4.0,34,0.00,,,0.00,meteohub,2013-07-03 00:22:00,
2013-07-02 17:23:00,95.7,62.8,29.72,SW,225,2.0,4.0,34,0.00,,,0.00,meteohub,2013-07-03 00:23:00,
2013-07-02 17:27:00,95.7,63.7,29.73,West,270,2.0,4.0,35,0.00,,,0.00,meteohub,2013-07-03 00:27:00,
2013-07-02 17:31:00,96.1,63.1,29.72,East,90,7.0,7.0,34,0.00,,,0.00,meteohub,2013-07-03 00:31:00,
2013-07-02 17:36:00,96.6,64.4,29.72,South,180,2.0,7.0,35,0.00,,,0.00,meteohub,2013-07-03 00:36:00,
2013-07-02 17:37:00,96.6,64.4,29.72,East,90,2.0,7.0,35,0.00,,,0.00,meteohub,2013-07-03 00:37:00,
2013-07-02 17:42:00,96.8,63.9,29.72,South,180,2.0,7.0,34,0.00,,,0.00,meteohub,2013-07-03 00:42:00,
2013-07-02 17:47:00,96.8,63.9,29.72,West,270,3.0,7.0,34,0.00,,,0.00,meteohub,2013-07-03 00:47:00,
2013-07-02 17:52:00,96.6,64.4,29.73,South,180,2.0,4.0,35,0.00,,,0.00,meteohub,2013-07-03 00:52:00,
2013-07-02 17:57:00,96.4,65.1,29.73,NW,315,1.0,3.0,36,0.00,,,0.00,meteohub,2013-07-03 00:57:00,
2013-07-02 18:01:00,96.4,65.1,29.73,West,270,2.0,3.0,36,0.00,,,0.00,meteohub,2013-07-03 01:01:00,
2013-07-02 18:03:00,96.1,64.8,29.72,SE,135,3.0,3.0,36,0.00,,,0.00,meteohub,2013-07-03 01:03:00,
2013-07-02 18:08:00,96.1,64.8,29.72,South,180,3.0,3.0,36,0.00,,,0.00,meteohub,2013-07-03 01:08:00,
2013-07-02 18:09:00,96.3,64.9,29.73,NW,315,2.0,3.0,36,0.00,,,0.00,meteohub,2013-07-03 01:09:00,
2013-07-02 18:14:00,96.1,64.8,29.72,SE,135,2.0,3.0,36,0.00,,,0.00,meteohub,2013-07-03 01:14:00,
2013-07-02 18:19:00,96.1,64.0,29.73,SW,225,5.0,5.0,35,0.00,,,0.00,meteohub,2013-07-03 01:19:00,
2013-07-02 18:24:00,96.1,64.0,29.72,SW,225,2.0,5.0,35,0.00,,,0.00,meteohub,2013-07-03 01:24:00,
2013-07-02 18:28:00,95.9,63.9,29.72,South,180,2.0,5.0,35,0.00,,,0.00,meteohub,2013-07-03 01:28:00,
2013-07-02 18:33:00,95.7,64.4,29.72,NW,315,1.0,5.0,36,0.00,,,0.00,meteohub,2013-07-03 01:33:00,
2013-07-02 18:38:00,95.4,62.6,29.72,South,180,2.0,2.0,34,0.00,,,0.00,meteohub,2013-07-03 01:38:00,
2013-07-02 18:43:00,94.5,61.7,29.73,North,0,1.0,2.0,34,0.00,,,0.00,meteohub,2013-07-03 01:43:00,
2013-07-02 18:48:00,93.2,60.6,29.73,West,270,2.0,3.0,34,0.00,,,0.00,meteohub,2013-07-03 01:48:00,
2013-07-02 18:50:00,92.8,60.3,29.72,NE,45,2.0,3.0,34,0.00,,,0.00,meteohub,2013-07-03 01:50:00,
2013-07-02 18:51:00,92.3,59.9,29.73,South,180,2.0,5.0,34,0.00,,,0.00,meteohub,2013-07-03 01:51:00,
2013-07-02 18:56:00,91.0,58.8,29.73,West,270,2.0,5.0,34,0.00,,,0.00,meteohub,2013-07-03 01:56:00,
2013-07-02 19:02:00,89.4,58.1,29.73,East,90,1.0,5.0,35,0.00,,,0.00,meteohub,2013-07-03 02:02:00,
2013-07-02 19:07:00,88.3,58.8,29.73,WNW,293,3.0,4.0,37,0.00,,,0.00,meteohub,2013-07-03 02:07:00,
2013-07-02 19:13:00,87.4,58.6,29.73,East,90,3.0,4.0,38,0.00,,,0.00,meteohub,2013-07-03 02:13:00,
2013-07-02 19:18:00,86.5,58.6,29.73,SE,135,3.0,4.0,39,0.00,,,0.00,meteohub,2013-07-03 02:18:00,
2013-07-02 19:24:00,85.6,57.9,29.73,SE,135,2.0,3.0,39,0.00,,,0.00,meteohub,2013-07-03 02:24:00,
2013-07-02 19:29:00,84.6,57.6,29.73,North,0,2.0,3.0,40,0.00,,,0.00,meteohub,2013-07-03 02:29:00,
2013-07-02 19:32:00,84.2,57.9,29.73,SE,135,2.0,3.0,41,0.00,,,0.00,meteohub,2013-07-03 02:32:00,
2013-07-02 19:37:00,83.7,57.4,29.73,SW,225,3.0,3.0,41,0.00,,,0.00,meteohub,2013-07-03 02:37:00,
2013-07-02 19:42:00,82.9,57.6,29.73,SE,135,2.0,3.0,42,0.00,,,0.00,meteohub,2013-07-03 02:42:00,
2013-07-02 19:47:00,82.8,57.9,29.73,SW,225,2.0,4.0,43,0.00,,,0.00,meteohub,2013-07-03 02:47:00,
2013-07-02 19:52:00,82.4,57.7,29.73,SW,225,4.0,4.0,43,0.00,,,0.00,meteohub,2013-07-03 02:52:00,
2013-07-02 19:57:00,82.0,57.9,29.73,NE,45,2.0,4.0,44,0.00,,,0.00,meteohub,2013-07-03 02:57:00,
2013-07-02 20:02:00,81.9,58.5,29.73,NE,45,1.0,4.0,45,0.00,,,0.00,meteohub,2013-07-03 03:02:00,
2013-07-02 20:03:00,81.9,58.5,29.73,NE,45,1.0,4.0,45,0.00,,,0.00,meteohub,2013-07-03 03:03:00,
2013-07-02 20:08:00,81.5,58.1,29.73,West,270,2.0,4.0,45,0.00,,,0.00,meteohub,2013-07-03 03:08:00,
2013-07-02 20:13:00,81.3,58.6,29.73,East,90,1.0,4.0,46,0.00,,,0.00,meteohub,2013-07-03 03:13:00,
2013-07-02 20:18:00,81.1,58.5,29.73,North,0,2.0,3.0,46,0.00,,,0.00,meteohub,2013-07-03 03:18:00,
2013-07-02 20:20:00,81.0,58.3,29.73,West,270,2.0,3.0,46,0.00,,,0.00,meteohub,2013-07-03 03:20:00,
2013-07-02 20:26:00,80.6,58.5,29.73,West,270,3.0,3.0,47,0.00,,,0.00,meteohub,2013-07-03 03:26:00,
2013-07-02 20:31:00,80.4,58.3,29.73,SW,225,2.0,3.0,47,0.00,,,0.00,meteohub,2013-07-03 03:31:00,
2013-07-02 20:36:00,80.1,58.1,29.73,North,0,3.0,3.0,47,0.00,,,0.00,meteohub,2013-07-03 03:36:00,
2013-07-02 20:37:00,80.1,58.1,29.74,South,180,3.0,3.0,47,0.00,,,0.00,meteohub,2013-07-03 03:37:00,
2013-07-02 20:39:00,79.9,57.9,29.73,WNW,293,2.0,3.0,47,0.00,,,0.00,meteohub,2013-07-03 03:39:00,
2013-07-02 20:45:00,79.3,57.9,29.73,WNW,293,2.0,3.0,48,0.00,,,0.00,meteohub,2013-07-03 03:45:00,
2013-07-02 20:50:00,78.8,57.4,29.73,West,270,3.0,5.0,48,0.00,,,0.00,meteohub,2013-07-03 03:50:00,
2013-07-02 20:52:00,78.6,57.9,29.73,SW,225,2.0,5.0,49,0.00,,,0.00,meteohub,2013-07-03 03:52:00,
2013-07-02 20:57:00,78.3,57.6,29.73,SW,225,2.0,5.0,49,0.00,,,0.00,meteohub,2013-07-03 03:57:00,
2013-07-02 21:01:00,77.9,57.7,29.74,SW,225,2.0,5.0,50,0.00,,,0.00,meteohub,2013-07-03 04:01:00,
2013-07-02 21:02:00,77.9,57.7,29.74,SE,135,2.0,5.0,50,0.00,,,0.00,meteohub,2013-07-03 04:02:00,
2013-07-02 21:03:00,77.9,57.7,29.74,South,180,2.0,5.0,50,0.00,,,0.00,meteohub,2013-07-03 04:03:00,
2013-07-02 21:05:00,77.7,57.6,29.75,South,180,2.0,4.0,50,0.00,,,0.00,meteohub,2013-07-03 04:05:00,
2013-07-02 21:06:00,77.7,58.1,29.74,SW,225,2.0,4.0,51,0.00,,,0.00,meteohub,2013-07-03 04:06:00,
2013-07-02 21:10:00,77.4,57.7,29.74,East,90,2.0,4.0,51,0.00,,,0.00,meteohub,2013-07-03 04:10:00,
2013-07-02 21:15:00,77.0,58.1,29.75,SW,225,1.0,4.0,52,0.00,,,0.00,meteohub,2013-07-03 04:15:00,
2013-07-02 21:20:00,76.6,58.3,29.76,NW,315,2.0,4.0,53,0.00,,,0.00,meteohub,2013-07-03 04:20:00,
2013-07-02 21:25:00,76.1,57.7,29.76,NW,315,2.0,2.0,53,0.00,,,0.00,meteohub,2013-07-03 04:25:00,
2013-07-02 21:30:00,75.7,57.9,29.76,South,180,1.0,2.0,54,0.00,,,0.00,meteohub,2013-07-03 04:30:00,
2013-07-02 21:32:00,75.6,58.3,29.77,West,270,1.0,2.0,55,0.00,,,0.00,meteohub,2013-07-03 04:32:00,
2013-07-02 21:36:00,75.4,58.1,29.77,SE,135,2.0,2.0,55,0.00,,,0.00,meteohub,2013-07-03 04:36:00,
2013-07-02 21:41:00,75.0,58.3,29.76,South,180,1.0,2.0,56,0.00,,,0.00,meteohub,2013-07-03 04:41:00,
2013-07-02 21:45:00,74.8,58.1,29.76,South,180,1.0,2.0,56,0.00,,,0.00,meteohub,2013-07-03 04:45:00,
2013-07-02 21:46:00,74.8,58.1,29.76,South,180,1.0,2.0,56,0.00,,,0.00,meteohub,2013-07-03 04:46:00,
2013-07-02 21:51:00,74.8,58.1,29.76,South,180,1.0,2.0,56,0.00,,,0.00,meteohub,2013-07-03 04:51:00,
2013-07-02 21:53:00,74.8,58.1,29.77,South,180,1.0,2.0,56,0.00,,,0.00,meteohub,2013-07-03 04:53:00,
2013-07-02 21:58:00,74.5,58.8,29.77,West,270,1.0,1.0,58,0.00,,,0.00,meteohub,2013-07-03 04:58:00,
2013-07-02 22:03:00,74.5,58.8,29.77,South,180,1.0,1.0,58,0.00,,,0.00,meteohub,2013-07-03 05:03:00,
2013-07-02 22:08:00,74.7,58.8,29.77,SW,225,0.0,1.0,58,0.00,,,0.00,meteohub,2013-07-03 05:08:00,
2013-07-02 22:11:00,74.8,58.6,29.77,West,270,1.0,1.0,57,0.00,,,0.00,meteohub,2013-07-03 05:11:00,
2013-07-02 22:16:00,75.2,59.0,29.77,NE,45,1.0,2.0,57,0.00,,,0.00,meteohub,2013-07-03 05:16:00,
2013-07-02 22:20:00,75.4,59.0,29.77,NE,45,0.0,2.0,57,0.00,,,0.00,meteohub,2013-07-03 05:20:00,
2013-07-02 22:25:00,75.6,59.2,29.77,NW,315,1.0,2.0,57,0.00,,,0.00,meteohub,2013-07-03 05:25:00,
2013-07-02 22:30:00,75.6,59.2,29.77,NW,315,0.0,1.0,57,0.00,,,0.00,meteohub,2013-07-03 05:30:00,
2013-07-02 22:35:00,75.6,59.2,29.77,West,270,0.0,1.0,57,0.00,,,0.00,meteohub,2013-07-03 05:35:00,
2013-07-02 22:40:00,75.4,59.5,29.77,West,270,0.0,2.0,58,0.00,,,0.00,meteohub,2013-07-03 05:40:00,
2013-07-02 22:46:00,75.4,59.0,29.77,East,90,1.0,2.0,57,0.00,,,0.00,meteohub,2013-07-03 05:46:00,
2013-07-02 22:52:00,75.2,59.0,29.77,SW,225,1.0,1.0,57,0.00,,,0.00,meteohub,2013-07-03 05:52:00,
2013-07-02 22:56:00,75.0,58.8,29.78,NE,45,1.0,1.0,57,0.00,,,0.00,meteohub,2013-07-03 05:56:00,
2013-07-02 22:57:00,74.8,58.6,29.78,SW,225,1.0,1.0,57,0.00,,,0.00,meteohub,2013-07-03 05:57:00,
2013-07-02 23:02:00,74.7,58.5,29.78,North,0,0.0,1.0,57,0.00,,,0.00,meteohub,2013-07-03 06:02:00,
2013-07-02 23:08:00,74.3,58.6,29.77,SW,225,1.0,1.0,58,0.00,,,0.00,meteohub,2013-07-03 06:08:00,
2013-07-02 23:13:00,73.9,58.3,29.77,SE,135,1.0,1.0,58,0.00,,,0.00,meteohub,2013-07-03 06:13:00,
2013-07-02 23:14:00,73.9,58.3,29.78,NW,315,1.0,1.0,58,0.00,,,0.00,meteohub,2013-07-03 06:14:00,
2013-07-02 23:16:00,73.8,58.5,29.78,SE,135,2.0,2.0,59,0.00,,,0.00,meteohub,2013-07-03 06:16:00,
2013-07-02 23:18:00,73.8,58.5,29.78,SW,225,1.0,1.0,59,0.00,,,0.00,meteohub,2013-07-03 06:18:00,
2013-07-02 23:23:00,73.4,58.3,29.78,North,0,2.0,2.0,59,0.00,,,0.00,meteohub,2013-07-03 06:23:00,
2013-07-02 23:25:00,73.2,58.1,29.78,SW,225,2.0,2.0,59,0.00,,,0.00,meteohub,2013-07-03 06:25:00,
2013-07-02 23:27:00,73.0,57.9,29.78,SW,225,2.0,2.0,59,0.00,,,0.00,meteohub,2013-07-03 06:27:00,
2013-07-02 23:32:00,72.7,57.9,29.78,SE,135,2.0,3.0,60,0.00,,,0.00,meteohub,2013-07-03 06:32:00,
2013-07-02 23:37:00,72.1,57.9,29.78,SE,135,1.0,3.0,61,0.00,,,0.00,meteohub,2013-07-03 06:37:00,
2013-07-02 23:43:00,71.6,57.9,29.78,East,90,2.0,3.0,62,0.00,,,0.00,meteohub,2013-07-03 06:43:00,
2013-07-02 23:44:00,71.6,57.9,29.78,East,90,2.0,3.0,62,0.00,,,0.00,meteohub,2013-07-03 06:44:00,
2013-07-02 23:49:00,71.4,58.1,29.78,SE,135,2.0,3.0,63,0.00,,,0.00,meteohub,2013-07-03 06:49:00,
2013-07-02 23:54:00,71.1,57.7,29.78,West,270,3.0,3.0,63,0.00,,,0.00,meteohub,2013-07-03 06:54:00,
2013-07-02 23:56:00,71.1,57.7,29.78,NE,45,2.0,4.0,63,0.00,,,0.00,meteohub,2013-07-03 06:56:00,